Fort Dodge Regional Airport Fort Dodge US
ICAO: KFOD
IATA: FOD
Category: Medium
Scheduled Services: Yes

Elevation: 1156 ft
TransAlt. 18000 ft.

Airport Communications:
AWOS 3:118.775
MINNEAPOLIS CNTR:134
RDO:122.3
CTAF/UNICOM:122.95

KFOD Zoom In..

If you have problems with the map follow the link
https://www.worldairports.se/pages/airport.php?
ICAO=KFOD

Runways:

(A) RW 06 length 6547 ft width 150 ft
ILS 109.10 / hdg 63

(B) RW 12 length 5301 ft width 100 ft
---- / hdg 125

(C) RW 24 length 6547 ft width 150 ft
---- / hdg 243

(D) RW 30 length 5301 ft width 100 ft
---- / hdg 305

Location; KFOD
Day. 22 / Time. 15.56 Zulu
* Altimeter: 30.35
* Temperature: -08° c. -17.6°f.
* Wind from: 090° Speed 07 kn.
Dewpoint: -13° c.
Visibility: 8 Statute Miles.
Clouds: Clear (automated report).

KFOD 221556Z AUTO 09007KT 8SM CLR M08/M13 A3035 RMK AO2 SLP330 T10831128 FZRANO


Wind From 090°
Speed 07 kn.

 
 
jpsmedia.com for Web Design worldairports.se 2019   terms of use